sensor_id;sensor_type;location;lat;lon;timestamp;temperature;humidity
66594;DHT22;53450;42.584;23.366;2023-04-01T00:00:00;12.10;47.62
66594;DHT22;53450;42.584;23.366;2023-04-01T00:02:26;11.93;48.46
66594;DHT22;53450;42.584;23.366;2023-04-01T00:04:52;11.90;47.21
66594;DHT22;53450;42.584;23.366;2023-04-01T00:07:17;12.05;47.18
66594;DHT22;53450;42.584;23.366;2023-04-01T00:09:43;12.00;48.31
66594;DHT22;53450;42.584;23.366;2023-04-01T00:12:08;11.87;49.48
66594;DHT22;53450;42.584;23.366;2023-04-01T00:14:35;11.69;50.65
66594;DHT22;53450;42.584;23.366;2023-04-01T00:17:02;11.58;50.69
66594;DHT22;53450;42.584;23.366;2023-04-01T00:19:28;11.47;50.36
66594;DHT22;53450;42.584;23.366;2023-04-01T00:21:54;11.43;50.82
66594;DHT22;53450;42.584;23.366;2023-04-01T00:24:19;11.51;51.88
66594;DHT22;53450;42.584;23.366;2023-04-01T00:26:45;11.47;52.13
66594;DHT22;53450;42.584;23.366;2023-04-01T00:29:11;11.38;52.27
66594;DHT22;53450;42.584;23.366;2023-04-01T00:31:36;11.15;53.71
66594;DHT22;53450;42.584;23.366;2023-04-01T00:34:02;11.05;54.12
66594;DHT22;53450;42.584;23.366;2023-04-01T00:36:28;10.94;55.33
66594;DHT22;53450;42.584;23.366;2023-04-01T00:38:53;10.90;55.40
66594;DHT22;53450;42.584;23.366;2023-04-01T00:41:20;10.87;55.93
66594;DHT22;53450;42.584;23.366;2023-04-01T00:43:48;10.71;56.18
66594;DHT22;53450;42.584;23.366;2023-04-01T00:46:15;10.60;56.11
66594;DHT22;53450;42.584;23.366;2023-04-01T00:48:55;10.54;56.00
66594;DHT22;53450;42.584;23.366;2023-04-01T00:51:23;10.53;57.18
66594;DHT22;53450;42.584;23.366;2023-04-01T00:53:53;10.49;55.80
66594;DHT22;53450;42.584;23.366;2023-04-01T00:56:27;10.52;55.54
66594;DHT22;53450;42.584;23.366;2023-04-01T00:59:08;11.40;47.90
66594;DHT22;53450;42.584;23.366;2023-04-01T01:01:36;11.67;48.91
66594;DHT22;53450;42.584;23.366;2023-04-01T01:04:02;11.62;50.48
66594;DHT22;53450;42.584;23.366;2023-04-01T01:06:43;11.36;50.80
66594;DHT22;53450;42.584;23.366;2023-04-01T01:11:48;11.63;48.92
66594;DHT22;53450;42.584;23.366;2023-04-01T01:14:28;11.59;49.40
66594;DHT22;53450;42.584;23.366;2023-04-01T01:17:10;11.25;53.67
66594;DHT22;53450;42.584;23.366;2023-04-01T01:34:32;10.26;58.25
66594;DHT22;53450;42.584;23.366;2023-04-01T01:37:06;10.10;58.86
66594;DHT22;53450;42.584;23.366;2023-04-01T01:39:33;9.99;59.62
66594;DHT22;53450;42.584;23.366;2023-04-01T01:42:04;9.91;58.45
66594;DHT22;53450;42.584;23.366;2023-04-01T01:44:31;9.75;59.20
66594;DHT22;53450;42.584;23.366;2023-04-01T01:46:59;9.95;58.73
66594;DHT22;53450;42.584;23.366;2023-04-01T01:49:27;9.92;57.47
66594;DHT22;53450;42.584;23.366;2023-04-01T01:52:22;10.03;57.33
66594;DHT22;53450;42.584;23.366;2023-04-01T01:57:16;10.40;53.54
66594;DHT22;53450;42.584;23.366;2023-04-01T01:59:47;10.46;54.54
66594;DHT22;53450;42.584;23.366;2023-04-01T02:02:22;10.46;55.05
66594;DHT22;53450;42.584;23.366;2023-04-01T02:04:49;10.43;55.85
66594;DHT22;53450;42.584;23.366;2023-04-01T02:07:23;10.47;57.10
66594;DHT22;53450;42.584;23.366;2023-04-01T02:09:49;10.46;55.26
66594;DHT22;53450;42.584;23.366;2023-04-01T02:12:16;10.45;55.93
66594;DHT22;53450;42.584;23.366;2023-04-01T02:14:47;10.47;54.77
66594;DHT22;53450;42.584;23.366;2023-04-01T02:17:26;10.33;54.62
66594;DHT22;53450;42.584;23.366;2023-04-01T02:19:57;10.37;52.39
66594;DHT22;53450;42.584;23.366;2023-04-01T02:22:28;10.60;50.13
66594;DHT22;53450;42.584;23.366;2023-04-01T02:25:00;10.77;49.55
66594;DHT22;53450;42.584;23.366;2023-04-01T02:27:26;10.95;47.89
66594;DHT22;53450;42.584;23.366;2023-04-01T02:29:52;11.29;46.96
66594;DHT22;53450;42.584;23.366;2023-04-01T02:32:19;11.66;44.37
66594;DHT22;53450;42.584;23.366;2023-04-01T02:34:46;11.61;44.61
66594;DHT22;53450;42.584;23.366;2023-04-01T02:37:13;11.76;44.37
66594;DHT22;53450;42.584;23.366;2023-04-01T02:39:39;11.74;44.21
66594;DHT22;53450;42.584;23.366;2023-04-01T02:42:06;11.61;44.09
66594;DHT22;53450;42.584;23.366;2023-04-01T02:44:32;11.63;44.50
66594;DHT22;53450;42.584;23.366;2023-04-01T02:47:00;11.66;44.75
66594;DHT22;53450;42.584;23.366;2023-04-01T02:49:25;11.76;46.17
66594;DHT22;53450;42.584;23.366;2023-04-01T02:51:51;11.72;44.52
66594;DHT22;53450;42.584;23.366;2023-04-01T02:54:18;11.70;44.71
66594;DHT22;53450;42.584;23.366;2023-04-01T02:57:08;11.56;44.84
66594;DHT22;53450;42.584;23.366;2023-04-01T02:59:33;11.38;44.73
66594;DHT22;53450;42.584;23.366;2023-04-01T03:01:59;11.39;44.86
66594;DHT22;53450;42.584;23.366;2023-04-01T03:04:25;11.55;46.84
66594;DHT22;53450;42.584;23.366;2023-04-01T03:06:50;11.39;46.25
66594;DHT22;53450;42.584;23.366;2023-04-01T03:09:16;11.35;44.85
66594;DHT22;53450;42.584;23.366;2023-04-01T03:11:42;11.42;44.15
66594;DHT22;53450;42.584;23.366;2023-04-01T03:14:08;11.51;44.30
66594;DHT22;53450;42.584;23.366;2023-04-01T03:16:33;11.51;44.00
66594;DHT22;53450;42.584;23.366;2023-04-01T03:18:59;11.59;43.28
66594;DHT22;53450;42.584;23.366;2023-04-01T03:21:27;11.69;43.44
66594;DHT22;53450;42.584;23.366;2023-04-01T03:23:53;11.67;43.17
66594;DHT22;53450;42.584;23.366;2023-04-01T03:26:19;11.69;43.40
66594;DHT22;53450;42.584;23.366;2023-04-01T03:28:45;11.70;43.98
66594;DHT22;53450;42.584;23.366;2023-04-01T03:31:11;11.77;43.92
66594;DHT22;53450;42.584;23.366;2023-04-01T03:33:43;11.90;44.07
66594;DHT22;53450;42.584;23.366;2023-04-01T03:36:09;11.91;44.45
66594;DHT22;53450;42.584;23.366;2023-04-01T03:38:37;11.89;44.02
66594;DHT22;53450;42.584;23.366;2023-04-01T03:41:03;11.82;45.60
66594;DHT22;53450;42.584;23.366;2023-04-01T03:43:30;11.61;44.68
66594;DHT22;53450;42.584;23.366;2023-04-01T03:45:56;11.67;45.22
66594;DHT22;53450;42.584;23.366;2023-04-01T03:48:25;11.59;46.03
66594;DHT22;53450;42.584;23.366;2023-04-01T03:50:51;11.62;46.57
66594;DHT22;53450;42.584;23.366;2023-04-01T03:53:17;11.62;47.12
66594;DHT22;53450;42.584;23.366;2023-04-01T03:55:44;11.62;47.28
66594;DHT22;53450;42.584;23.366;2023-04-01T03:58:10;11.40;47.61
66594;DHT22;53450;42.584;23.366;2023-04-01T04:00:36;11.24;48.10
66594;DHT22;53450;42.584;23.366;2023-04-01T04:03:02;11.25;48.71
66594;DHT22;53450;42.584;23.366;2023-04-01T04:05:32;11.42;47.71
66594;DHT22;53450;42.584;23.366;2023-04-01T04:07:59;11.49;47.97
66594;DHT22;53450;42.584;23.366;2023-04-01T04:10:25;11.51;47.92
66594;DHT22;53450;42.584;23.366;2023-04-01T04:12:51;11.43;47.93
66594;DHT22;53450;42.584;23.366;2023-04-01T04:15:18;11.51;47.71
66594;DHT22;53450;42.584;23.366;2023-04-01T04:17:45;11.45;48.03
66594;DHT22;53450;42.584;23.366;2023-04-01T04:20:13;11.46;48.16
66594;DHT22;53450;42.584;23.366;2023-04-01T04:22:39;11.51;49.24
66594;DHT22;53450;42.584;23.366;2023-04-01T04:25:07;11.46;48.74
66594;DHT22;53450;42.584;23.366;2023-04-01T04:27:34;11.39;48.72
66594;DHT22;53450;42.584;23.366;2023-04-01T04:30:07;11.33;49.14
66594;DHT22;53450;42.584;23.366;2023-04-01T04:32:35;11.42;48.95
66594;DHT22;53450;42.584;23.366;2023-04-01T04:35:01;11.40;49.29
66594;DHT22;53450;42.584;23.366;2023-04-01T04:37:27;11.35;49.73
66594;DHT22;53450;42.584;23.366;2023-04-01T04:39:53;11.31;49.78
66594;DHT22;53450;42.584;23.366;2023-04-01T04:42:19;11.26;50.21
66594;DHT22;53450;42.584;23.366;2023-04-01T04:44:45;11.19;49.88
66594;DHT22;53450;42.584;23.366;2023-04-01T04:47:36;11.15;50.25
66594;DHT22;53450;42.584;23.366;2023-04-01T04:50:26;11.00;49.93
66594;DHT22;53450;42.584;23.366;2023-04-01T04:52:52;11.07;48.58
66594;DHT22;53450;42.584;23.366;2023-04-01T04:55:18;11.12;48.37
66594;DHT22;53450;42.584;23.366;2023-04-01T04:57:48;11.24;48.75
66594;DHT22;53450;42.584;23.366;2023-04-01T05:00:15;11.18;48.28
66594;DHT22;53450;42.584;23.366;2023-04-01T05:02:59;11.14;47.77
66594;DHT22;53450;42.584;23.366;2023-04-01T05:05:24;11.16;47.28
66594;DHT22;53450;42.584;23.366;2023-04-01T05:07:50;11.18;47.41
66594;DHT22;53450;42.584;23.366;2023-04-01T05:10:16;11.21;46.83
66594;DHT22;53450;42.584;23.366;2023-04-01T05:12:42;11.36;45.88
66594;DHT22;53450;42.584;23.366;2023-04-01T05:15:09;11.28;45.98
66594;DHT22;53450;42.584;23.366;2023-04-01T05:17:36;11.36;45.87
66594;DHT22;53450;42.584;23.366;2023-04-01T05:20:03;11.33;45.73
66594;DHT22;53450;42.584;23.366;2023-04-01T05:22:29;11.32;45.26
66594;DHT22;53450;42.584;23.366;2023-04-01T05:24:55;11.33;45.46
66594;DHT22;53450;42.584;23.366;2023-04-01T05:27:21;11.40;45.57
66594;DHT22;53450;42.584;23.366;2023-04-01T05:29:48;11.47;45.77
66594;DHT22;53450;42.584;23.366;2023-04-01T05:32:40;11.49;46.21
66594;DHT22;53450;42.584;23.366;2023-04-01T05:35:06;11.42;45.80
66594;DHT22;53450;42.584;23.366;2023-04-01T05:37:34;11.49;45.74
66594;DHT22;53450;42.584;23.366;2023-04-01T05:40:00;11.62;45.36
66594;DHT22;53450;42.584;23.366;2023-04-01T05:42:28;11.79;44.95
66594;DHT22;53450;42.584;23.366;2023-04-01T05:44:54;11.94;44.22
66594;DHT22;53450;42.584;23.366;2023-04-01T05:47:57;12.14;44.67
66594;DHT22;53450;42.584;23.366;2023-04-01T05:50:22;12.34;44.16
66594;DHT22;53450;42.584;23.366;2023-04-01T05:52:48;12.32;44.44
66594;DHT22;53450;42.584;23.366;2023-04-01T05:55:15;12.35;44.85
66594;DHT22;53450;42.584;23.366;2023-04-01T05:57:40;12.42;44.44
66594;DHT22;53450;42.584;23.366;2023-04-01T06:00:06;12.37;44.43
66594;DHT22;53450;42.584;23.366;2023-04-01T06:03:00;12.42;43.80
66594;DHT22;53450;42.584;23.366;2023-04-01T06:05:30;12.48;44.20
66594;DHT22;53450;42.584;23.366;2023-04-01T06:08:04;12.45;43.89
66594;DHT22;53450;42.584;23.366;2023-04-01T06:13:40;12.61;43.86
66594;DHT22;53450;42.584;23.366;2023-04-01T06:18:46;12.89;42.70
66594;DHT22;53450;42.584;23.366;2023-04-01T06:21:46;12.95;43.68
66594;DHT22;53450;42.584;23.366;2023-04-01T06:38:05;13.72;41.10
66594;DHT22;53450;42.584;23.366;2023-04-01T06:46:18;12.78;47.47
66594;DHT22;53450;42.584;23.366;2023-04-01T06:55:52;13.16;44.81
66594;DHT22;53450;42.584;23.366;2023-04-01T06:58:41;12.85;47.36
66594;DHT22;53450;42.584;23.366;2023-04-01T07:01:14;12.65;47.53
66594;DHT22;53450;42.584;23.366;2023-04-01T07:03:51;12.69;48.02
66594;DHT22;53450;42.584;23.366;2023-04-01T07:06:36;13.07;43.74
66594;DHT22;53450;42.584;23.366;2023-04-01T07:09:12;13.38;42.67
66594;DHT22;53450;42.584;23.366;2023-04-01T07:12:09;13.37;42.69
66594;DHT22;53450;42.584;23.366;2023-04-01T07:15:13;13.55;41.32
66594;DHT22;53450;42.584;23.366;2023-04-01T07:17:47;13.68;40.84
66594;DHT22;53450;42.584;23.366;2023-04-01T07:20:24;13.71;40.86
66594;DHT22;53450;42.584;23.366;2023-04-01T07:22:55;13.78;41.13
66594;DHT22;53450;42.584;23.366;2023-04-01T07:25:44;13.85;40.71
66594;DHT22;53450;42.584;23.366;2023-04-01T07:28:31;13.86;40.67
66594;DHT22;53450;42.584;23.366;2023-04-01T07:31:24;13.92;40.39
66594;DHT22;53450;42.584;23.366;2023-04-01T07:34:14;14.01;40.84
66594;DHT22;53450;42.584;23.366;2023-04-01T07:37:10;14.22;40.66
66594;DHT22;53450;42.584;23.366;2023-04-01T07:45:38;15.12;38.47
66594;DHT22;53450;42.584;23.366;2023-04-01T08:07:53;14.89;38.28
66594;DHT22;53450;42.584;23.366;2023-04-01T08:11:14;15.04;38.13
66594;DHT22;53450;42.584;23.366;2023-04-01T08:14:16;15.08;37.94
66594;DHT22;53450;42.584;23.366;2023-04-01T08:17:47;14.87;38.89
66594;DHT22;53450;42.584;23.366;2023-04-01T08:23:15;15.04;38.62
66594;DHT22;53450;42.584;23.366;2023-04-01T08:25:56;15.16;38.50
66594;DHT22;53450;42.584;23.366;2023-04-01T08:28:32;15.25;37.62
66594;DHT22;53450;42.584;23.366;2023-04-01T08:31:14;15.02;37.90
66594;DHT22;53450;42.584;23.366;2023-04-01T08:33:44;15.22;38.09
66594;DHT22;53450;42.584;23.366;2023-04-01T08:36:17;15.34;38.06
66594;DHT22;53450;42.584;23.366;2023-04-01T08:39:06;15.50;36.69
66594;DHT22;53450;42.584;23.366;2023-04-01T08:45:14;15.91;36.47
66594;DHT22;53450;42.584;23.366;2023-04-01T08:53:09;15.98;35.26
66594;DHT22;53450;42.584;23.366;2023-04-01T09:15:27;16.66;34.19
66594;DHT22;53450;42.584;23.366;2023-04-01T09:29:32;17.26;34.14
66594;DHT22;53450;42.584;23.366;2023-04-01T09:38:27;17.67;33.89
66594;DHT22;53450;42.584;23.366;2023-04-01T09:40:58;17.77;33.70
66594;DHT22;53450;42.584;23.366;2023-04-01T09:44:01;17.69;33.32
66594;DHT22;53450;42.584;23.366;2023-04-01T09:52:33;17.65;34.52
66594;DHT22;53450;42.584;23.366;2023-04-01T09:58:01;17.32;35.41
66594;DHT22;53450;42.584;23.366;2023-04-01T10:21:05;17.83;34.29
66594;DHT22;53450;42.584;23.366;2023-04-01T10:35:23;18.44;34.39
66594;DHT22;53450;42.584;23.366;2023-04-01T10:41:33;18.78;33.82
66594;DHT22;53450;42.584;23.366;2023-04-01T10:56:34;17.13;35.22
66594;DHT22;53450;42.584;23.366;2023-04-01T11:14:51;16.58;37.73
66594;DHT22;53450;42.584;23.366;2023-04-01T11:23:54;16.13;40.31
66594;DHT22;53450;42.584;23.366;2023-04-01T11:32:02;15.70;41.65
66594;DHT22;53450;42.584;23.366;2023-04-01T11:34:51;15.63;42.37
66594;DHT22;53450;42.584;23.366;2023-04-01T11:41:12;15.21;45.57
66594;DHT22;53450;42.584;23.366;2023-04-01T11:47:41;13.50;58.97
66594;DHT22;53450;42.584;23.366;2023-04-01T11:50:25;12.08;68.80
66594;DHT22;53450;42.584;23.366;2023-04-01T12:04:55;10.16;78.32
66594;DHT22;53450;42.584;23.366;2023-04-01T12:11:15;10.20;76.79
66594;DHT22;53450;42.584;23.366;2023-04-01T12:13:45;10.36;77.67
66594;DHT22;53450;42.584;23.366;2023-04-01T12:27:17;11.12;79.44
66594;DHT22;53450;42.584;23.366;2023-04-01T12:35:17;11.08;79.48
66594;DHT22;53450;42.584;23.366;2023-04-01T13:03:14;10.45;82.21
66594;DHT22;53450;42.584;23.366;2023-04-01T13:25:47;11.00;80.94
66594;DHT22;53450;42.584;23.366;2023-04-01T13:28:26;11.21;81.96
66594;DHT22;53450;42.584;23.366;2023-04-01T13:36:30;11.22;81.01
66594;DHT22;53450;42.584;23.366;2023-04-01T13:42:59;11.53;80.07
66594;DHT22;53450;42.584;23.366;2023-04-01T13:45:21;11.21;79.58
66594;DHT22;53450;42.584;23.366;2023-04-01T13:53:46;12.03;74.27
66594;DHT22;53450;42.584;23.366;2023-04-01T13:56:34;12.07;72.58
66594;DHT22;53450;42.584;23.366;2023-04-01T14:13:00;12.44;66.96
66594;DHT22;53450;42.584;23.366;2023-04-01T14:15:54;12.34;60.17
66594;DHT22;53450;42.584;23.366;2023-04-01T14:27:06;12.18;56.48
66594;DHT22;53450;42.584;23.366;2023-04-01T14:47:43;12.17;59.32
66594;DHT22;53450;42.584;23.366;2023-04-01T14:50:17;12.14;58.14
66594;DHT22;53450;42.584;23.366;2023-04-01T14:55:50;12.27;60.32
66594;DHT22;53450;42.584;23.366;2023-04-01T14:58:21;12.38;59.08
66594;DHT22;53450;42.584;23.366;2023-04-01T15:01:00;12.42;60.11
66594;DHT22;53450;42.584;23.366;2023-04-01T15:03:51;12.61;60.47
66594;DHT22;53450;42.584;23.366;2023-04-01T15:18:17;11.97;67.31
66594;DHT22;53450;42.584;23.366;2023-04-01T15:23:31;11.73;66.26
66594;DHT22;53450;42.584;23.366;2023-04-01T15:26:28;11.95;65.70
66594;DHT22;53450;42.584;23.366;2023-04-01T15:37:53;12.11;66.47
66594;DHT22;53450;42.584;23.366;2023-04-01T15:40:26;12.00;61.17
66594;DHT22;53450;42.584;23.366;2023-04-01T15:45:56;11.98;61.14
66594;DHT22;53450;42.584;23.366;2023-04-01T15:51:24;12.03;59.16
66594;DHT22;53450;42.584;23.366;2023-04-01T15:54:19;12.01;60.88
66594;DHT22;53450;42.584;23.366;2023-04-01T15:58:00;11.90;60.46
66594;DHT22;53450;42.584;23.366;2023-04-01T16:00:49;11.67;62.27
66594;DHT22;53450;42.584;23.366;2023-04-01T16:06:11;8.80;75.08
66594;DHT22;53450;42.584;23.366;2023-04-01T16:11:40;7.85;80.32
66594;DHT22;53450;42.584;23.366;2023-04-01T16:20:35;7.35;81.26
66594;DHT22;53450;42.584;23.366;2023-04-01T16:23:40;7.07;83.26
66594;DHT22;53450;42.584;23.366;2023-04-01T16:26:28;6.96;84.28
66594;DHT22;53450;42.584;23.366;2023-04-01T16:31:51;6.96;82.94
66594;DHT22;53450;42.584;23.366;2023-04-01T16:34:46;7.03;82.68
66594;DHT22;53450;42.584;23.366;2023-04-01T16:37:29;7.05;81.40
66594;DHT22;53450;42.584;23.366;2023-04-01T16:40:11;7.11;81.42
66594;DHT22;53450;42.584;23.366;2023-04-01T16:48:22;6.84;83.61
66594;DHT22;53450;42.584;23.366;2023-04-01T17:01:03;6.97;82.05
66594;DHT22;53450;42.584;23.366;2023-04-01T17:03:34;7.10;78.34
66594;DHT22;53450;42.584;23.366;2023-04-01T17:11:55;7.41;76.33
66594;DHT22;53450;42.584;23.366;2023-04-01T17:25:34;6.84;79.98
66594;DHT22;53450;42.584;23.366;2023-04-01T17:30:50;6.45;80.83
66594;DHT22;53450;42.584;23.366;2023-04-01T17:34:16;6.81;77.53
66594;DHT22;53450;42.584;23.366;2023-04-01T17:39:35;7.04;76.89
66594;DHT22;53450;42.584;23.366;2023-04-01T17:45:21;7.27;74.22
66594;DHT22;53450;42.584;23.366;2023-04-01T17:48:47;7.03;77.19
66594;DHT22;53450;42.584;23.366;2023-04-01T17:56:08;6.33;82.80
66594;DHT22;53450;42.584;23.366;2023-04-01T17:58:59;6.08;82.81
66594;DHT22;53450;42.584;23.366;2023-04-01T18:01:47;6.14;82.42
66594;DHT22;53450;42.584;23.366;2023-04-01T18:23:30;5.98;83.70
66594;DHT22;53450;42.584;23.366;2023-04-01T18:26:27;6.15;83.54
66594;DHT22;53450;42.584;23.366;2023-04-01T18:34:53;6.01;82.51
66594;DHT22;53450;42.584;23.366;2023-04-01T18:37:27;5.90;82.40
66594;DHT22;53450;42.584;23.366;2023-04-01T18:40:00;5.87;82.72
66594;DHT22;53450;42.584;23.366;2023-04-01T18:45:35;5.77;83.62
66594;DHT22;53450;42.584;23.366;2023-04-01T18:48:26;5.57;84.26
66594;DHT22;53450;42.584;23.366;2023-04-01T18:51:11;5.81;81.65
66594;DHT22;53450;42.584;23.366;2023-04-01T18:53:42;6.22;77.05
66594;DHT22;53450;42.584;23.366;2023-04-01T18:56:15;6.02;80.50
66594;DHT22;53450;42.584;23.366;2023-04-01T18:58:59;5.91;82.10
66594;DHT22;53450;42.584;23.366;2023-04-01T19:03:31;6.01;81.79
66594;DHT22;53450;42.584;23.366;2023-04-01T19:06:02;5.95;81.22
66594;DHT22;53450;42.584;23.366;2023-04-01T19:08:35;5.97;80.47
66594;DHT22;53450;42.584;23.366;2023-04-01T19:17:03;6.08;80.57
66594;DHT22;53450;42.584;23.366;2023-04-01T19:19:44;6.04;80.87
66594;DHT22;53450;42.584;23.366;2023-04-01T19:22:41;6.32;77.52
66594;DHT22;53450;42.584;23.366;2023-04-01T19:25:25;6.28;79.40
66594;DHT22;53450;42.584;23.366;2023-04-01T19:33:19;6.20;80.22
66594;DHT22;53450;42.584;23.366;2023-04-01T19:36:41;6.17;80.64
66594;DHT22;53450;42.584;23.366;2023-04-01T19:39:45;6.10;80.97
66594;DHT22;53450;42.584;23.366;2023-04-01T19:52:47;6.12;79.96
